Adamsdale, Pennsylvania
Current Conditions -  °F | °C
As of 6:54 AM on Saturday 01 Nov 2014 (Local Time) from KRDG Reporting Station
Overcast Overcast  
Wind Chill: 42°   Ceiling: 5000
Heat Index: 47°   Visibility: 10mi
Dew Point: 39°   Wind: 12mph
Humidity: 74%   Direction: 40°NE
Pressure: 29.84"   Gusts: NA
Location:  40.6412°N, 76.1672°W
Report Text: KRDG 011054Z 04010KT 10SM OVC050 08/04 A2984 RMK AO2 RAE52 SLP109 P0001 T00830039
Loading
Personal Weather Stations






























Interactive Weather Map
Tropical Storm Tracking
New forecast layout! Learn more

10-Day Weather Forecast

Advertisements
Track Severe Weather on mobile